Time,TemperatureF,DewpointF,PressureIn,WindDirection,WindDirectionDegrees,WindSpeedMPH,WindSpeedGustMPH,Humidity,HourlyPrecipIn,Conditions,Clouds,dailyrainin,SoftwareType,DateUTC
2013-06-29 00:01:00,70.2,69.9,29.34,NE,45,5.8,5.8,99,0.01,RA,SCT,0.00,WeatherDisplay:10.37,2013-06-29 04:01:00,
2013-06-29 00:02:00,70.2,69.9,29.34,NE,45,5.8,5.8,99,0.01,RA,SCT,0.00,WeatherDisplay:10.37,2013-06-29 04:02:00,
2013-06-29 00:07:00,70.2,69.9,29.34,SE,135,6.9,6.9,99,0.01,RA,SCT,0.00,WeatherDisplay:10.37,2013-06-29 04:07:00,
2013-06-29 00:12:00,70.2,69.9,29.34,NNE,22,5.8,5.8,99,0.01,CLR,SCT,0.00,WeatherDisplay:10.37,2013-06-29 04:12:00,
2013-06-29 00:17:00,70.2,69.9,29.33,NE,45,5.8,5.8,99,0.01,CLR,SCT,0.00,WeatherDisplay:10.37,2013-06-29 04:17:00,
2013-06-29 00:22:00,70.2,69.9,29.33,SE,135,8.1,8.1,99,0.01,CLR,SCT,0.00,WeatherDisplay:10.37,2013-06-29 04:22:00,
2013-06-29 00:27:00,70.2,69.9,29.33,East,90,8.1,8.1,99,0.01,CLR,SCT,0.00,WeatherDisplay:10.37,2013-06-29 04:27:00,
2013-06-29 00:32:00,70.3,70.0,29.32,NE,45,6.9,6.9,99,0.01,CLR,SCT,0.00,WeatherDisplay:10.37,2013-06-29 04:32:00,
2013-06-29 00:37:00,70.3,70.0,29.31,NE,45,5.8,5.8,99,0.01,CLR,SCT,0.00,WeatherDisplay:10.37,2013-06-29 04:37:00,
2013-06-29 00:42:00,70.3,70.0,29.32,SE,135,8.1,8.1,99,0.01,CLR,SCT,0.00,WeatherDisplay:10.37,2013-06-29 04:42:00,
2013-06-29 00:47:00,70.3,70.0,29.32,NE,45,5.8,5.8,99,0.01,CLR,SCT,0.00,WeatherDisplay:10.37,2013-06-29 04:47:00,
2013-06-29 00:52:00,70.3,70.0,29.32,NE,45,8.1,8.1,99,0.01,CLR,SCT,0.00,WeatherDisplay:10.37,2013-06-29 04:52:00,
2013-06-29 00:57:00,70.3,70.0,29.32,East,90,11.5,11.5,99,0.00,CLR,SCT,0.00,WeatherDisplay:10.37,2013-06-29 04:57:00,
2013-06-29 01:02:00,70.3,70.0,29.31,SE,135,5.8,5.8,99,0.00,CLR,SCT,0.00,WeatherDisplay:10.37,2013-06-29 05:02:00,
2013-06-29 01:07:00,70.3,70.0,29.31,NE,45,8.1,8.1,99,0.00,CLR,SCT,0.00,WeatherDisplay:10.37,2013-06-29 05:07:00,
2013-06-29 01:12:00,70.3,70.0,29.31,SE,135,10.4,10.4,99,0.00,CLR,SCT,0.00,WeatherDisplay:10.37,2013-06-29 05:12:00,
2013-06-29 01:17:00,70.3,70.0,29.31,SE,135,6.9,6.9,99,0.00,CLR,SCT,0.00,WeatherDisplay:10.37,2013-06-29 05:17:00,
2013-06-29 01:22:00,70.3,70.0,29.31,East,90,6.9,6.9,99,0.00,CLR,SCT,0.00,WeatherDisplay:10.37,2013-06-29 05:22:00,
2013-06-29 01:27:00,70.5,70.2,29.31,NE,45,3.5,3.5,99,0.00,CLR,SCT,0.00,WeatherDisplay:10.37,2013-06-29 05:27:00,
2013-06-29 01:32:00,70.5,70.2,29.31,East,90,3.5,3.5,99,0.00,CLR,SCT,0.00,WeatherDisplay:10.37,2013-06-29 05:32:00,
2013-06-29 01:37:00,70.5,70.2,29.30,NNE,22,8.1,8.1,99,0.00,CLR,SCT,0.00,WeatherDisplay:10.37,2013-06-29 05:37:00,
2013-06-29 01:42:00,70.5,70.2,29.30,North,0,8.1,8.1,99,0.00,CLR,SCT,0.00,WeatherDisplay:10.37,2013-06-29 05:42:00,
2013-06-29 01:47:00,70.7,70.4,29.31,SE,135,6.9,6.9,99,0.00,CLR,SCT,0.00,WeatherDisplay:10.37,2013-06-29 05:47:00,
2013-06-29 01:52:00,70.7,70.4,29.30,WSW,248,5.8,5.8,99,0.00,CLR,SCT,0.00,WeatherDisplay:10.37,2013-06-29 05:52:00,
2013-06-29 01:57:00,70.7,70.4,29.31,SE,135,5.8,5.8,99,0.00,CLR,SCT,0.00,WeatherDisplay:10.37,2013-06-29 05:57:00,
2013-06-29 02:02:00,70.7,70.4,29.31,SE,135,5.8,5.8,99,0.00,CLR,SCT,0.00,WeatherDisplay:10.37,2013-06-29 06:02:00,
2013-06-29 02:07:00,70.9,70.6,29.30,East,90,8.1,8.1,99,0.00,CLR,SCT,0.00,WeatherDisplay:10.37,2013-06-29 06:07:00,
2013-06-29 02:12:00,70.9,70.6,29.30,East,90,6.9,6.9,99,0.00,CLR,SCT,0.00,WeatherDisplay:10.37,2013-06-29 06:12:00,
2013-06-29 02:17:00,71.1,70.8,29.30,South,180,4.6,4.6,99,0.00,CLR,SCT,0.00,WeatherDisplay:10.37,2013-06-29 06:17:00,
2013-06-29 02:22:00,70.9,70.6,29.29,East,90,5.8,5.8,99,0.00,CLR,SCT,0.00,WeatherDisplay:10.37,2013-06-29 06:22:00,
2013-06-29 02:27:00,71.1,70.8,29.29,NE,45,6.9,6.9,99,0.00,CLR,SCT,0.00,WeatherDisplay:10.37,2013-06-29 06:27:00,
2013-06-29 02:32:00,71.1,70.8,29.30,NE,45,8.1,8.1,99,0.00,CLR,SCT,0.00,WeatherDisplay:10.37,2013-06-29 06:32:00,
2013-06-29 02:37:00,71.1,70.8,29.29,East,90,5.8,5.8,99,0.00,CLR,SCT,0.00,WeatherDisplay:10.37,2013-06-29 06:37:00,
2013-06-29 02:42:00,71.2,70.9,29.29,South,180,6.9,6.9,99,0.00,CLR,SCT,0.00,WeatherDisplay:10.37,2013-06-29 06:42:00,
2013-06-29 02:47:00,71.2,70.9,29.29,East,90,8.1,8.1,99,0.00,CLR,SCT,0.00,WeatherDisplay:10.37,2013-06-29 06:47:00,
2013-06-29 02:52:00,71.2,70.9,29.29,East,90,5.8,5.8,99,0.00,CLR,SCT,0.00,WeatherDisplay:10.37,2013-06-29 06:52:00,
2013-06-29 02:57:00,71.4,71.1,29.28,West,270,8.1,8.1,99,0.00,CLR,SCT,0.00,WeatherDisplay:10.37,2013-06-29 06:57:00,
2013-06-29 03:02:00,71.2,70.9,29.29,East,90,4.6,4.6,99,0.00,CLR,SCT,0.00,WeatherDisplay:10.37,2013-06-29 07:02:00,
2013-06-29 03:07:00,71.4,71.1,29.29,NE,45,8.1,8.1,99,0.00,CLR,SCT,0.00,WeatherDisplay:10.37,2013-06-29 07:07:00,
2013-06-29 03:12:00,71.4,71.1,29.28,SE,135,8.1,8.1,99,0.00,CLR,SCT,0.00,WeatherDisplay:10.37,2013-06-29 07:12:00,
2013-06-29 03:17:00,71.4,71.1,29.28,SE,135,5.8,5.8,99,0.00,CLR,SCT,0.00,WeatherDisplay:10.37,2013-06-29 07:17:00,
2013-06-29 03:22:00,71.4,71.1,29.28,SE,135,5.8,5.8,99,0.00,CLR,SCT,0.00,WeatherDisplay:10.37,2013-06-29 07:22:00,
2013-06-29 03:27:00,71.4,71.1,29.28,East,90,3.5,3.8,99,0.00,CLR,SCT,0.00,WeatherDisplay:10.37,2013-06-29 07:27:00,
2013-06-29 03:32:00,71.2,70.9,29.28,SE,135,6.9,6.9,99,0.00,CLR,SCT,0.00,WeatherDisplay:10.37,2013-06-29 07:32:00,
2013-06-29 03:37:00,70.9,70.6,29.28,SE,135,6.9,6.9,99,0.00,CLR,SCT,0.00,WeatherDisplay:10.37,2013-06-29 07:37:00,
2013-06-29 03:42:00,70.9,70.6,29.29,East,90,6.9,6.9,99,0.00,CLR,SCT,0.00,WeatherDisplay:10.37,2013-06-29 07:42:00,
2013-06-29 03:47:00,70.7,70.4,29.29,SE,135,5.8,5.8,99,0.00,CLR,SCT,0.00,WeatherDisplay:10.37,2013-06-29 07:47:00,
2013-06-29 03:52:00,70.3,70.0,29.29,SSE,158,5.8,5.8,99,0.00,CLR,SCT,0.00,WeatherDisplay:10.37,2013-06-29 07:52:00,
2013-06-29 03:57:00,70.3,70.0,29.29,SE,135,3.5,3.5,99,0.00,CLR,SCT,0.00,WeatherDisplay:10.37,2013-06-29 07:57:00,
2013-06-29 04:02:00,70.3,70.0,29.29,NE,45,8.1,8.1,99,0.00,CLR,SCT,0.00,WeatherDisplay:10.37,2013-06-29 08:02:00,
2013-06-29 04:07:00,70.2,69.9,29.29,WNW,292,8.1,8.1,99,0.00,CLR,SCT,0.00,WeatherDisplay:10.37,2013-06-29 08:07:00,
2013-06-29 04:12:00,70.2,69.9,29.29,NE,45,4.6,4.6,99,0.00,CLR,SCT,0.00,WeatherDisplay:10.37,2013-06-29 08:12:00,
2013-06-29 04:17:00,70.0,69.7,29.29,North,0,5.8,5.8,99,0.00,CLR,SCT,0.00,WeatherDisplay:10.37,2013-06-29 08:17:00,
2013-06-29 04:22:00,70.0,69.7,29.29,SE,135,5.8,5.8,99,0.00,CLR,SCT,0.00,WeatherDisplay:10.37,2013-06-29 08:22:00,
2013-06-29 04:27:00,70.2,69.9,29.29,South,180,5.8,5.8,99,0.01,RA,SCT,0.01,WeatherDisplay:10.37,2013-06-29 08:27:00,
2013-06-29 04:32:00,70.2,69.9,29.29,SE,135,5.8,5.8,99,0.01,RA,SCT,0.01,WeatherDisplay:10.37,2013-06-29 08:32:00,
2013-06-29 04:37:00,70.2,69.9,29.29,South,180,3.5,3.5,99,0.01,CLR,SCT,0.01,WeatherDisplay:10.37,2013-06-29 08:37:00,
2013-06-29 04:42:00,70.2,69.9,29.29,East,90,5.8,5.8,99,0.01,CLR,SCT,0.01,WeatherDisplay:10.37,2013-06-29 08:42:00,
2013-06-29 04:47:00,70.2,69.9,29.30,NW,315,4.6,4.6,99,0.01,CLR,SCT,0.01,WeatherDisplay:10.37,2013-06-29 08:47:00,
2013-06-29 04:52:00,70.2,69.9,29.31,SE,135,5.8,5.8,99,0.01,CLR,SCT,0.01,WeatherDisplay:10.37,2013-06-29 08:52:00,
2013-06-29 04:57:00,70.2,69.9,29.30,NE,45,4.6,4.6,99,0.01,CLR,SCT,0.01,WeatherDisplay:10.37,2013-06-29 08:57:00,
2013-06-29 05:02:00,70.2,69.9,29.31,NE,45,3.5,3.5,99,0.01,CLR,SCT,0.01,WeatherDisplay:10.37,2013-06-29 09:02:00,
2013-06-29 05:07:00,70.2,69.9,29.31,East,90,5.8,5.8,99,0.02,RA,SCT,0.02,WeatherDisplay:10.37,2013-06-29 09:07:00,
2013-06-29 05:13:00,70.2,69.9,29.32,SE,135,8.1,8.1,99,0.04,RA,SCT,0.04,WeatherDisplay:10.37,2013-06-29 09:13:00,
2013-06-29 05:18:00,70.2,69.9,29.32,East,90,10.4,10.4,99,0.05,RA,SCT,0.05,WeatherDisplay:10.37,2013-06-29 09:18:00,
2013-06-29 05:23:00,70.2,69.9,29.32,SW,225,5.8,5.8,99,0.06,RA,SCT,0.06,WeatherDisplay:10.37,2013-06-29 09:23:00,
2013-06-29 05:28:00,70.2,69.9,29.31,NE,45,5.8,5.8,99,0.09,RA,SCT,0.11,WeatherDisplay:10.37,2013-06-29 09:28:00,
2013-06-29 05:33:00,70.2,69.9,29.31,NE,45,5.8,5.8,99,0.12,RA,SCT,0.13,WeatherDisplay:10.37,2013-06-29 09:33:00,
2013-06-29 05:38:00,70.2,69.9,29.30,East,90,5.8,5.8,99,0.12,RA,SCT,0.13,WeatherDisplay:10.37,2013-06-29 09:38:00,
2013-06-29 05:43:00,70.3,70.0,29.31,East,90,5.8,0.0,99,0.12,,SCT,0.13,WeatherDisplay:10.37,2013-06-29 09:43:00,
2013-06-29 05:48:00,70.3,70.0,29.32,East,90,5.8,5.8,99,0.12,CLR,SCT,0.13,WeatherDisplay:10.37,2013-06-29 09:48:00,
2013-06-29 05:53:00,70.3,70.0,29.31,NE,45,3.5,3.5,99,0.13,RA,SCT,0.14,WeatherDisplay:10.37,2013-06-29 09:53:00,
2013-06-29 05:58:00,70.3,70.0,29.32,NE,45,4.6,0.0,99,0.13,RA,SCT,0.14,WeatherDisplay:10.37,2013-06-29 09:58:00,
2013-06-29 06:03:00,70.3,70.0,29.32,NE,45,4.6,4.6,99,0.13,CLR,SCT,0.14,WeatherDisplay:10.37,2013-06-29 10:03:00,
2013-06-29 06:08:00,70.5,70.2,29.32,East,90,3.5,3.5,99,0.12,CLR,SCT,0.14,WeatherDisplay:10.37,2013-06-29 10:08:00,
2013-06-29 06:13:00,70.5,70.2,29.32,NE,45,5.8,5.8,99,0.11,CLR,SCT,0.14,WeatherDisplay:10.37,2013-06-29 10:13:00,
2013-06-29 06:18:00,70.5,70.2,29.31,NE,45,6.9,6.9,99,0.09,CLR,SCT,0.14,WeatherDisplay:10.37,2013-06-29 10:18:00,
2013-06-29 06:23:00,70.5,70.2,29.31,SE,135,3.5,3.5,99,0.08,CLR,SCT,0.14,WeatherDisplay:10.37,2013-06-29 10:23:00,
2013-06-29 06:28:00,70.3,70.0,29.32,ENE,68,3.5,3.5,99,0.04,CLR,SCT,0.14,WeatherDisplay:10.37,2013-06-29 10:28:00,
2013-06-29 06:33:00,70.3,70.0,29.32,East,90,4.6,4.6,99,0.01,CLR,SCT,0.14,WeatherDisplay:10.37,2013-06-29 10:33:00,
2013-06-29 06:38:00,70.5,70.2,29.33,East,90,5.8,5.8,99,0.01,CLR,SCT,0.14,WeatherDisplay:10.37,2013-06-29 10:38:00,
2013-06-29 06:43:00,70.7,70.4,29.33,SE,135,1.2,0.0,99,0.01,CLR,SCT,0.14,WeatherDisplay:10.37,2013-06-29 10:43:00,
2013-06-29 06:48:00,70.9,70.6,29.33,East,90,3.5,0.0,99,0.01,CLR,SCT,0.14,WeatherDisplay:10.37,2013-06-29 10:48:00,
2013-06-29 06:53:00,70.9,70.6,29.33,South,180,4.6,4.6,99,0.00,CLR,SCT,0.14,WeatherDisplay:10.37,2013-06-29 10:53:00,
2013-06-29 06:58:00,70.9,70.6,29.33,SE,135,5.8,5.8,99,0.00,CLR,SCT,0.14,WeatherDisplay:10.37,2013-06-29 10:58:00,
2013-06-29 07:03:00,70.9,70.6,29.33,ENE,68,6.9,6.9,99,0.00,CLR,SCT,0.14,WeatherDisplay:10.37,2013-06-29 11:03:00,
2013-06-29 07:08:00,71.1,70.8,29.33,NE,45,5.8,5.8,99,0.00,CLR,SCT,0.14,WeatherDisplay:10.37,2013-06-29 11:08:00,
2013-06-29 07:13:00,70.9,70.6,29.33,SE,135,6.9,6.9,99,0.00,CLR,SCT,0.14,WeatherDisplay:10.37,2013-06-29 11:13:00,
2013-06-29 07:18:00,70.7,70.4,29.33,East,90,8.1,8.1,99,0.00,CLR,SCT,0.14,WeatherDisplay:10.37,2013-06-29 11:18:00,
2013-06-29 07:23:00,70.7,70.4,29.33,East,90,8.1,8.1,99,0.00,CLR,SCT,0.14,WeatherDisplay:10.37,2013-06-29 11:23:00,
2013-06-29 07:28:00,70.7,70.4,29.33,East,90,8.1,8.1,99,0.00,CLR,SCT,0.14,WeatherDisplay:10.37,2013-06-29 11:28:00,
2013-06-29 07:33:00,70.7,70.4,29.33,East,90,8.1,8.1,99,0.00,CLR,SCT,0.14,WeatherDisplay:10.37,2013-06-29 11:33:00,
2013-06-29 07:38:00,70.7,70.4,29.33,East,90,5.8,5.8,99,0.00,CLR,SCT,0.14,WeatherDisplay:10.37,2013-06-29 11:38:00,
2013-06-29 07:43:00,70.7,70.4,29.33,East,90,10.4,10.4,99,0.00,CLR,SCT,0.14,WeatherDisplay:10.37,2013-06-29 11:43:00,
2013-06-29 07:48:00,70.9,70.6,29.34,NE,45,8.1,8.1,99,0.00,CLR,SCT,0.14,WeatherDisplay:10.37,2013-06-29 11:48:00,
2013-06-29 07:53:00,70.9,70.6,29.34,East,90,5.8,5.8,99,0.00,CLR,SCT,0.14,WeatherDisplay:10.37,2013-06-29 11:53:00,
2013-06-29 07:58:00,70.9,70.6,29.34,North,0,8.1,8.1,99,0.00,CLR,SCT,0.14,WeatherDisplay:10.37,2013-06-29 11:58:00,
2013-06-29 08:03:00,70.9,70.6,29.34,NE,45,6.9,6.9,99,0.00,CLR,SCT,0.14,WeatherDisplay:10.37,2013-06-29 12:03:00,
2013-06-29 08:08:00,70.9,70.6,29.35,East,90,6.9,6.9,99,0.00,CLR,SCT,0.14,WeatherDisplay:10.37,2013-06-29 12:08:00,
2013-06-29 08:13:00,71.2,70.9,29.35,NW,315,4.6,4.6,99,0.00,CLR,SCT,0.14,WeatherDisplay:10.37,2013-06-29 12:13:00,
2013-06-29 08:18:00,71.1,70.8,29.35,East,90,5.8,5.8,99,0.00,CLR,SCT,0.14,WeatherDisplay:10.37,2013-06-29 12:18:00,
2013-06-29 08:23:00,70.7,70.4,29.36,East,90,6.9,6.9,99,0.00,CLR,SCT,0.14,WeatherDisplay:10.37,2013-06-29 12:23:00,
2013-06-29 08:28:00,70.9,70.6,29.36,SE,135,8.1,8.1,99,0.00,CLR,SCT,0.14,WeatherDisplay:10.37,2013-06-29 12:28:00,
2013-06-29 08:33:00,71.1,70.8,29.37,North,0,8.1,8.1,99,0.00,CLR,SCT,0.14,WeatherDisplay:10.37,2013-06-29 12:33:00,
2013-06-29 08:38:00,71.1,70.8,29.36,East,90,10.4,10.4,99,0.00,CLR,SCT,0.14,WeatherDisplay:10.37,2013-06-29 12:38:00,
2013-06-29 08:43:00,71.1,70.8,29.36,South,180,10.4,10.4,99,0.00,CLR,SCT,0.14,WeatherDisplay:10.37,2013-06-29 12:43:00,
2013-06-29 08:48:00,71.1,70.8,29.36,NE,45,8.1,8.1,99,0.00,CLR,SCT,0.14,WeatherDisplay:10.37,2013-06-29 12:48:00,
2013-06-29 08:53:00,71.4,71.1,29.37,East,90,4.6,4.6,99,0.00,CLR,SCT,0.14,WeatherDisplay:10.37,2013-06-29 12:53:00,
2013-06-29 08:58:00,71.6,71.3,29.36,East,90,5.8,5.8,99,0.00,CLR,SCT,0.14,WeatherDisplay:10.37,2013-06-29 12:58:00,
2013-06-29 09:03:00,71.4,71.1,29.37,East,90,10.4,10.4,99,0.00,CLR,SCT,0.14,WeatherDisplay:10.37,2013-06-29 13:03:00,
2013-06-29 09:08:00,71.4,71.1,29.36,NE,45,8.1,8.1,99,0.00,CLR,SCT,0.14,WeatherDisplay:10.37,2013-06-29 13:08:00,
2013-06-29 09:13:00,71.6,71.3,29.36,East,90,3.5,3.5,99,0.00,CLR,SCT,0.14,WeatherDisplay:10.37,2013-06-29 13:13:00,
2013-06-29 09:18:00,71.6,71.3,29.36,East,90,5.8,5.8,99,0.00,CLR,SCT,0.14,WeatherDisplay:10.37,2013-06-29 13:18:00,
2013-06-29 09:23:00,71.2,70.9,29.36,SE,135,12.7,12.7,99,0.00,CLR,SCT,0.14,WeatherDisplay:10.37,2013-06-29 13:23:00,
2013-06-29 09:28:00,71.1,70.8,29.37,East,90,8.1,8.1,99,0.00,CLR,SCT,0.14,WeatherDisplay:10.37,2013-06-29 13:28:00,
2013-06-29 09:33:00,70.9,70.6,29.37,SE,135,6.9,6.9,99,0.00,CLR,SCT,0.14,WeatherDisplay:10.37,2013-06-29 13:33:00,
2013-06-29 09:38:00,70.9,70.6,29.38,NE,45,5.8,5.8,99,0.00,CLR,SCT,0.14,WeatherDisplay:10.37,2013-06-29 13:38:00,
2013-06-29 09:43:00,70.9,70.6,29.37,SE,135,8.1,8.1,99,0.00,CLR,SCT,0.14,WeatherDisplay:10.37,2013-06-29 13:43:00,
2013-06-29 09:48:00,70.9,70.6,29.37,East,90,9.2,9.2,99,0.00,CLR,SCT,0.14,WeatherDisplay:10.37,2013-06-29 13:48:00,
2013-06-29 09:53:00,70.9,70.6,29.37,SE,135,11.5,11.5,99,0.00,CLR,SCT,0.14,WeatherDisplay:10.37,2013-06-29 13:53:00,
2013-06-29 09:58:00,70.9,70.6,29.37,SE,135,10.4,10.4,99,0.00,CLR,SCT,0.14,WeatherDisplay:10.37,2013-06-29 13:58:00,
2013-06-29 10:04:00,70.9,70.6,29.38,East,90,8.1,8.1,99,0.00,CLR,SCT,0.14,WeatherDisplay:10.37,2013-06-29 14:04:00,
2013-06-29 10:09:00,70.9,70.6,29.37,East,90,3.5,3.5,99,0.00,CLR,SCT,0.14,WeatherDisplay:10.37,2013-06-29 14:09:00,
2013-06-29 10:14:00,71.1,70.8,29.38,NE,45,5.8,5.8,99,0.00,CLR,SCT,0.14,WeatherDisplay:10.37,2013-06-29 14:14:00,
2013-06-29 10:19:00,71.2,70.9,29.37,SW,225,2.3,0.0,99,0.00,CLR,SCT,0.14,WeatherDisplay:10.37,2013-06-29 14:19:00,
2013-06-29 10:24:00,71.4,71.1,29.36,East,90,3.5,3.5,99,0.00,CLR,SCT,0.14,WeatherDisplay:10.37,2013-06-29 14:24:00,
2013-06-29 10:29:00,71.4,71.1,29.36,SW,225,3.5,3.5,99,0.00,CLR,SCT,0.14,WeatherDisplay:10.37,2013-06-29 14:29:00,
2013-06-29 10:34:00,71.6,71.3,29.37,East,90,6.9,6.9,99,0.00,CLR,SCT,0.14,WeatherDisplay:10.37,2013-06-29 14:34:00,
2013-06-29 10:39:00,71.6,71.3,29.36,East,90,3.5,3.5,99,0.00,CLR,SCT,0.14,WeatherDisplay:10.37,2013-06-29 14:39:00,
2013-06-29 10:44:00,71.6,71.3,29.36,East,90,6.9,6.9,99,0.00,CLR,SCT,0.14,WeatherDisplay:10.37,2013-06-29 14:44:00,
2013-06-29 10:49:00,71.8,71.5,29.37,SE,135,5.8,5.8,99,0.00,CLR,SCT,0.14,WeatherDisplay:10.37,2013-06-29 14:49:00,
2013-06-29 10:54:00,72.0,71.7,29.37,SW,225,8.1,8.1,99,0.00,CLR,SCT,0.14,WeatherDisplay:10.37,2013-06-29 14:54:00,
2013-06-29 10:59:00,72.5,72.2,29.37,East,90,3.5,3.5,99,0.00,CLR,SCT,0.14,WeatherDisplay:10.37,2013-06-29 14:59:00,
2013-06-29 11:04:00,72.7,72.4,29.36,East,90,5.8,5.8,99,0.00,CLR,SCT,0.14,WeatherDisplay:10.37,2013-06-29 15:04:00,
2013-06-29 11:09:00,72.7,72.4,29.37,SE,135,9.2,9.2,99,0.00,CLR,SCT,0.14,WeatherDisplay:10.37,2013-06-29 15:09:00,
2013-06-29 11:14:00,73.0,72.7,29.38,SE,135,12.7,12.7,99,0.00,CLR,SCT,0.14,WeatherDisplay:10.37,2013-06-29 15:14:00,
2013-06-29 11:19:00,73.4,73.1,29.38,East,90,6.9,6.9,99,0.00,CLR,SCT,0.14,WeatherDisplay:10.37,2013-06-29 15:19:00,
2013-06-29 11:24:00,74.3,74.0,29.38,East,90,8.1,8.1,99,0.00,CLR,SCT,0.14,WeatherDisplay:10.37,2013-06-29 15:24:00,
2013-06-29 11:29:00,74.5,74.2,29.38,East,90,5.8,5.8,99,0.00,CLR,SCT,0.14,WeatherDisplay:10.37,2013-06-29 15:29:00,
2013-06-29 11:34:00,74.7,74.4,29.39,East,90,6.9,6.9,99,0.00,CLR,SCT,0.14,WeatherDisplay:10.37,2013-06-29 15:34:00,
2013-06-29 11:39:00,74.7,74.4,29.39,SW,225,13.8,13.8,99,0.00,CLR,SCT,0.14,WeatherDisplay:10.37,2013-06-29 15:39:00,
2013-06-29 11:44:00,74.3,74.0,29.39,SE,135,15.0,15.0,99,0.00,CLR,SCT,0.14,WeatherDisplay:10.37,2013-06-29 15:44:00,
2013-06-29 11:49:00,73.9,73.6,29.39,East,90,12.7,12.7,99,0.00,CLR,SCT,0.14,WeatherDisplay:10.37,2013-06-29 15:49:00,
2013-06-29 11:54:00,74.5,74.2,29.38,NE,45,5.8,5.8,99,0.00,CLR,SCT,0.14,WeatherDisplay:10.37,2013-06-29 15:54:00,
2013-06-29 11:59:00,75.2,74.9,29.38,East,90,6.9,6.9,99,0.00,CLR,SCT,0.14,WeatherDisplay:10.37,2013-06-29 15:59:00,
2013-06-29 12:04:00,74.8,74.5,29.39,East,90,10.7,10.7,99,0.00,CLR,SCT,0.14,WeatherDisplay:10.37,2013-06-29 16:04:00,
2013-06-29 12:09:00,75.0,74.7,29.38,SE,135,10.4,10.4,99,0.00,CLR,SCT,0.14,WeatherDisplay:10.37,2013-06-29 16:09:00,
2013-06-29 12:14:00,74.7,74.4,29.38,SE,135,12.7,12.7,99,0.00,CLR,SCT,0.14,WeatherDisplay:10.37,2013-06-29 16:14:00,
2013-06-29 12:19:00,74.8,74.5,29.39,SE,135,8.1,8.1,99,0.00,CLR,SCT,0.14,WeatherDisplay:10.37,2013-06-29 16:19:00,
2013-06-29 12:24:00,74.5,74.2,29.39,SE,135,16.1,16.1,99,0.00,CLR,SCT,0.14,WeatherDisplay:10.37,2013-06-29 16:24:00,
2013-06-29 12:29:00,75.2,74.9,29.40,SE,135,12.7,12.7,99,0.00,CLR,SCT,0.14,WeatherDisplay:10.37,2013-06-29 16:29:00,
2013-06-29 12:34:00,75.7,75.4,29.39,East,90,11.5,11.5,99,0.00,CLR,SCT,0.14,WeatherDisplay:10.37,2013-06-29 16:34:00,
2013-06-29 12:39:00,77.0,76.7,29.39,East,90,10.4,10.4,99,0.00,CLR,SCT,0.14,WeatherDisplay:10.37,2013-06-29 16:39:00,
2013-06-29 12:44:00,78.1,77.8,29.39,North,0,10.4,10.4,99,0.00,CLR,SCT,0.14,WeatherDisplay:10.37,2013-06-29 16:44:00,
2013-06-29 12:49:00,77.5,77.2,29.39,East,90,15.0,15.0,99,0.00,CLR,SCT,0.14,WeatherDisplay:10.37,2013-06-29 16:49:00,
2013-06-29 12:54:00,78.3,78.0,29.40,SE,135,6.9,6.9,99,0.00,CLR,SCT,0.14,WeatherDisplay:10.37,2013-06-29 16:54:00,
2013-06-29 12:59:00,78.1,77.8,29.39,SW,225,12.7,12.7,99,0.00,CLR,SCT,0.14,WeatherDisplay:10.37,2013-06-29 16:59:00,
2013-06-29 13:04:00,78.3,78.0,29.40,South,180,10.4,10.4,99,0.00,CLR,SCT,0.14,WeatherDisplay:10.37,2013-06-29 17:04:00,
2013-06-29 13:09:00,78.1,77.8,29.39,SE,135,9.2,9.2,99,0.00,CLR,SCT,0.14,WeatherDisplay:10.37,2013-06-29 17:09:00,
2013-06-29 13:14:00,78.3,78.0,29.40,SE,135,8.1,8.1,99,0.00,CLR,SCT,0.14,WeatherDisplay:10.37,2013-06-29 17:14:00,
2013-06-29 13:19:00,78.4,78.1,29.39,SSW,202,9.2,9.2,99,0.00,CLR,SCT,0.14,WeatherDisplay:10.37,2013-06-29 17:19:00,
2013-06-29 13:24:00,79.3,79.0,29.40,South,180,12.7,12.7,99,0.00,CLR,SCT,0.14,WeatherDisplay:10.37,2013-06-29 17:24:00,
2013-06-29 13:29:00,79.3,79.0,29.39,East,90,12.7,12.7,99,0.00,CLR,SCT,0.14,WeatherDisplay:10.37,2013-06-29 17:29:00,
2013-06-29 13:34:00,79.9,79.6,29.40,SE,135,11.5,11.5,99,0.00,CLR,SCT,0.14,WeatherDisplay:10.37,2013-06-29 17:34:00,
2013-06-29 13:39:00,79.9,79.6,29.40,West,270,13.8,13.8,99,0.00,CLR,SCT,0.14,WeatherDisplay:10.37,2013-06-29 17:39:00,
2013-06-29 13:44:00,80.1,79.8,29.40,East,90,5.8,8.3,99,0.00,CLR,SCT,0.14,WeatherDisplay:10.37,2013-06-29 17:44:00,
2013-06-29 13:49:00,80.1,79.8,29.40,SE,135,10.4,10.4,99,0.00,CLR,SCT,0.14,WeatherDisplay:10.37,2013-06-29 17:49:00,
2013-06-29 13:54:00,80.4,80.1,29.40,NE,45,13.8,13.8,99,0.00,CLR,SCT,0.14,WeatherDisplay:10.37,2013-06-29 17:54:00,
2013-06-29 13:59:00,80.6,80.3,29.41,WNW,292,10.4,10.4,99,0.00,CLR,SCT,0.14,WeatherDisplay:10.37,2013-06-29 17:59:00,
2013-06-29 14:04:00,80.6,80.3,29.41,SW,225,10.4,10.4,99,0.00,CLR,SCT,0.14,WeatherDisplay:10.37,2013-06-29 18:04:00,
2013-06-29 14:09:00,79.2,78.9,29.41,East,90,13.8,13.8,99,0.00,CLR,SCT,0.14,WeatherDisplay:10.37,2013-06-29 18:09:00,
2013-06-29 14:14:00,79.5,79.2,29.41,North,0,15.0,15.0,99,0.00,CLR,SCT,0.14,WeatherDisplay:10.37,2013-06-29 18:14:00,
2013-06-29 14:19:00,79.3,79.0,29.42,North,0,12.7,12.7,99,0.00,CLR,SCT,0.14,WeatherDisplay:10.37,2013-06-29 18:19:00,
2013-06-29 14:24:00,79.5,78.9,29.40,SE,135,12.7,12.7,98,0.00,CLR,SCT,0.14,WeatherDisplay:10.37,2013-06-29 18:24:00,
2013-06-29 14:30:00,79.0,78.7,29.40,NE,45,17.3,17.3,99,0.00,CLR,SCT,0.14,WeatherDisplay:10.37,2013-06-29 18:30:00,
2013-06-29 14:35:00,79.2,78.9,29.40,East,90,10.4,10.4,99,0.00,CLR,SCT,0.14,WeatherDisplay:10.37,2013-06-29 18:35:00,
2013-06-29 14:40:00,79.3,79.0,29.41,East,90,15.0,15.0,99,0.00,CLR,SCT,0.14,WeatherDisplay:10.37,2013-06-29 18:40:00,
2013-06-29 14:45:00,79.5,79.2,29.40,SE,135,15.0,15.0,99,0.00,CLR,SCT,0.14,WeatherDisplay:10.37,2013-06-29 18:45:00,
2013-06-29 14:50:00,79.5,79.2,29.40,SE,135,11.5,11.5,99,0.00,CLR,SCT,0.14,WeatherDisplay:10.37,2013-06-29 18:50:00,
2013-06-29 14:55:00,79.2,78.9,29.40,NE,45,15.0,15.0,99,0.00,CLR,SCT,0.14,WeatherDisplay:10.37,2013-06-29 18:55:00,
2013-06-29 15:00:00,78.4,78.1,29.41,East,90,13.8,13.8,99,0.00,CLR,SCT,0.14,WeatherDisplay:10.37,2013-06-29 19:00:00,
2013-06-29 15:05:00,78.8,78.5,29.40,East,90,10.4,10.4,99,0.00,CLR,SCT,0.14,WeatherDisplay:10.37,2013-06-29 19:05:00,
2013-06-29 15:10:00,78.8,78.5,29.41,NE,45,6.9,6.9,99,0.00,CLR,SCT,0.14,WeatherDisplay:10.37,2013-06-29 19:10:00,
2013-06-29 15:15:00,78.6,77.7,29.41,SE,135,15.0,15.0,97,0.00,CLR,SCT,0.14,WeatherDisplay:10.37,2013-06-29 19:15:00,
2013-06-29 15:20:00,78.6,77.4,29.42,NE,45,19.6,19.6,96,0.00,CLR,SCT,0.14,WeatherDisplay:10.37,2013-06-29 19:20:00,
2013-06-29 15:25:00,78.1,77.2,29.41,East,90,15.0,15.0,97,0.00,CLR,SCT,0.14,WeatherDisplay:10.37,2013-06-29 19:25:00,
2013-06-29 15:30:00,78.6,77.7,29.42,East,90,17.3,17.3,97,0.00,CLR,SCT,0.14,WeatherDisplay:10.37,2013-06-29 19:30:00,
2013-06-29 15:35:00,79.2,78.2,29.42,SE,135,9.2,9.2,97,0.00,CLR,SCT,0.14,WeatherDisplay:10.37,2013-06-29 19:35:00,
2013-06-29 15:40:00,80.6,79.0,29.41,NE,45,10.4,10.4,95,0.00,CLR,SCT,0.14,WeatherDisplay:10.37,2013-06-29 19:40:00,
2013-06-29 15:45:00,80.4,78.5,29.42,SE,135,15.0,15.0,94,0.00,CLR,SCT,0.14,WeatherDisplay:10.37,2013-06-29 19:45:00,
2013-06-29 15:50:00,80.8,79.2,29.41,NE,45,10.4,10.4,95,0.00,CLR,SCT,0.14,WeatherDisplay:10.37,2013-06-29 19:50:00,
2013-06-29 15:55:00,80.6,78.1,29.41,NW,315,16.1,16.1,92,0.00,CLR,SCT,0.14,WeatherDisplay:10.37,2013-06-29 19:55:00,
2013-06-29 16:00:00,81.5,79.3,29.42,NE,45,12.7,12.7,93,0.00,CLR,SCT,0.14,WeatherDisplay:10.37,2013-06-29 20:00:00,
2013-06-29 16:05:00,80.4,78.2,29.42,East,90,16.1,16.1,93,0.00,CLR,SCT,0.14,WeatherDisplay:10.37,2013-06-29 20:05:00,
2013-06-29 16:10:00,80.2,78.4,29.42,East,90,13.8,13.8,94,0.00,CLR,SCT,0.14,WeatherDisplay:10.37,2013-06-29 20:10:00,
2013-06-29 16:15:00,80.2,79.0,29.43,SE,135,15.0,15.0,96,0.00,CLR,SCT,0.14,WeatherDisplay:10.37,2013-06-29 20:15:00,
2013-06-29 16:20:00,80.6,78.7,29.42,South,180,8.1,8.1,94,0.00,CLR,SCT,0.14,WeatherDisplay:10.37,2013-06-29 20:20:00,
2013-06-29 16:25:00,79.3,78.4,29.43,South,180,16.1,16.1,97,0.00,CLR,SCT,0.14,WeatherDisplay:10.37,2013-06-29 20:25:00,
2013-06-29 16:30:00,79.2,78.9,29.42,NW,315,16.1,16.1,99,0.00,CLR,SCT,0.14,WeatherDisplay:10.37,2013-06-29 20:30:00,
2013-06-29 16:35:00,79.5,79.2,29.43,SE,135,12.7,12.7,99,0.00,CLR,SCT,0.14,WeatherDisplay:10.37,2013-06-29 20:35:00,
2013-06-29 16:40:00,79.2,78.9,29.44,North,0,16.1,16.1,99,0.00,CLR,SCT,0.14,WeatherDisplay:10.37,2013-06-29 20:40:00,
2013-06-29 16:45:00,79.3,79.0,29.43,North,0,10.4,10.4,99,0.00,CLR,SCT,0.14,WeatherDisplay:10.37,2013-06-29 20:45:00,
2013-06-29 16:50:00,79.0,78.7,29.43,SE,135,10.4,10.4,99,0.00,CLR,SCT,0.14,WeatherDisplay:10.37,2013-06-29 20:50:00,
2013-06-29 16:55:00,78.3,78.0,29.43,SE,135,9.2,9.2,99,0.00,CLR,SCT,0.14,WeatherDisplay:10.37,2013-06-29 20:55:00,
2013-06-29 17:00:00,78.1,77.8,29.43,NE,45,26.5,26.5,99,0.00,CLR,SCT,0.14,WeatherDisplay:10.37,2013-06-29 21:00:00,
2013-06-29 17:05:00,78.1,77.8,29.43,East,90,10.4,10.4,99,0.00,CLR,SCT,0.14,WeatherDisplay:10.37,2013-06-29 21:05:00,
2013-06-29 17:10:00,77.5,77.2,29.43,ENE,68,13.8,13.8,99,0.00,CLR,SCT,0.14,WeatherDisplay:10.37,2013-06-29 21:10:00,
2013-06-29 17:15:00,77.2,76.9,29.43,NE,45,12.7,12.7,99,0.00,CLR,SCT,0.14,WeatherDisplay:10.37,2013-06-29 21:15:00,
2013-06-29 17:20:00,76.3,76.0,29.43,NW,315,10.4,10.4,99,0.00,CLR,SCT,0.14,WeatherDisplay:10.37,2013-06-29 21:20:00,
2013-06-29 17:25:00,76.3,76.0,29.43,East,90,6.9,6.9,99,0.00,CLR,SCT,0.14,WeatherDisplay:10.37,2013-06-29 21:25:00,
2013-06-29 17:30:00,76.1,75.8,29.43,North,0,13.8,13.8,99,0.00,CLR,SCT,0.14,WeatherDisplay:10.37,2013-06-29 21:30:00,
2013-06-29 17:35:00,76.1,75.8,29.43,SE,135,13.7,13.7,99,0.00,CLR,SCT,0.14,WeatherDisplay:10.37,2013-06-29 21:35:00,
2013-06-29 17:40:00,76.8,76.5,29.43,SE,135,10.4,10.4,99,0.00,CLR,SCT,0.14,WeatherDisplay:10.37,2013-06-29 21:40:00,
2013-06-29 17:45:00,75.7,75.4,29.43,South,180,12.7,12.7,99,0.00,CLR,SCT,0.14,WeatherDisplay:10.37,2013-06-29 21:45:00,
2013-06-29 17:50:00,75.0,74.7,29.43,North,0,10.4,10.4,99,0.00,CLR,SCT,0.14,WeatherDisplay:10.37,2013-06-29 21:50:00,
2013-06-29 17:55:00,74.8,74.5,29.43,East,90,10.4,10.4,99,0.00,CLR,SCT,0.14,WeatherDisplay:10.37,2013-06-29 21:55:00,
2013-06-29 18:00:00,74.3,74.0,29.43,SE,135,9.2,9.2,99,0.00,CLR,SCT,0.14,WeatherDisplay:10.37,2013-06-29 22:00:00,
2013-06-29 18:05:00,73.8,73.5,29.44,North,0,10.4,10.4,99,0.00,CLR,SCT,0.14,WeatherDisplay:10.37,2013-06-29 22:05:00,
2013-06-29 18:10:00,73.2,72.9,29.43,SE,135,15.0,15.0,99,0.00,CLR,SCT,0.14,WeatherDisplay:10.37,2013-06-29 22:10:00,
2013-06-29 18:15:00,73.0,72.7,29.43,SE,135,8.1,8.1,99,0.00,CLR,SCT,0.14,WeatherDisplay:10.37,2013-06-29 22:15:00,
2013-06-29 18:20:00,73.0,72.7,29.43,East,90,12.7,12.7,99,0.00,CLR,SCT,0.14,WeatherDisplay:10.37,2013-06-29 22:20:00,
2013-06-29 18:25:00,73.2,72.9,29.43,SE,135,6.9,6.9,99,0.00,CLR,SCT,0.14,WeatherDisplay:10.37,2013-06-29 22:25:00,
2013-06-29 18:30:00,73.4,73.1,29.43,East,90,9.2,9.2,99,0.00,CLR,SCT,0.14,WeatherDisplay:10.37,2013-06-29 22:30:00,
2013-06-29 18:35:00,73.6,73.3,29.44,SE,135,17.3,17.3,99,0.00,CLR,SCT,0.14,WeatherDisplay:10.37,2013-06-29 22:35:00,
2013-06-29 18:40:00,73.6,73.3,29.44,South,180,8.1,8.1,99,0.00,CLR,SCT,0.14,WeatherDisplay:10.37,2013-06-29 22:40:00,
2013-06-29 18:45:00,73.9,73.6,29.44,East,90,11.5,11.5,99,0.00,CLR,SCT,0.14,WeatherDisplay:10.37,2013-06-29 22:45:00,
2013-06-29 18:50:00,74.1,73.8,29.44,SE,135,8.1,8.1,99,0.00,CLR,SCT,0.14,WeatherDisplay:10.37,2013-06-29 22:50:00,
2013-06-29 18:55:00,74.1,73.8,29.44,NE,45,10.4,10.4,99,0.00,CLR,SCT,0.14,WeatherDisplay:10.37,2013-06-29 22:55:00,
2013-06-29 19:00:00,73.8,73.5,29.44,NE,45,8.1,8.1,99,0.00,CLR,SCT,0.14,WeatherDisplay:10.37,2013-06-29 23:00:00,
2013-06-29 19:05:00,73.4,73.1,29.44,SE,135,10.4,10.4,99,0.00,CLR,SCT,0.14,WeatherDisplay:10.37,2013-06-29 23:05:00,
2013-06-29 19:10:00,73.0,72.7,29.44,SE,135,10.4,10.4,99,0.00,CLR,SCT,0.14,WeatherDisplay:10.37,2013-06-29 23:10:00,
2013-06-29 19:15:00,72.9,72.6,29.45,NE,45,10.4,10.4,99,0.00,CLR,SCT,0.14,WeatherDisplay:10.37,2013-06-29 23:15:00,
2013-06-29 19:20:00,72.3,72.0,29.45,East,90,5.8,5.8,99,0.00,CLR,SCT,0.14,WeatherDisplay:10.37,2013-06-29 23:20:00,
2013-06-29 19:25:00,72.1,71.8,29.45,SE,135,11.5,11.5,99,0.00,CLR,SCT,0.14,WeatherDisplay:10.37,2013-06-29 23:25:00,
2013-06-29 19:30:00,72.0,71.7,29.45,East,90,8.1,8.1,99,0.00,CLR,SCT,0.14,WeatherDisplay:10.37,2013-06-29 23:30:00,
2013-06-29 19:35:00,72.0,71.7,29.45,SE,135,8.1,8.1,99,0.00,CLR,SCT,0.14,WeatherDisplay:10.37,2013-06-29 23:35:00,
2013-06-29 19:40:00,72.0,71.7,29.45,SE,135,12.7,12.7,99,0.00,CLR,SCT,0.14,WeatherDisplay:10.37,2013-06-29 23:40:00,
2013-06-29 19:45:00,71.8,71.5,29.44,SE,135,11.5,11.5,99,0.00,CLR,SCT,0.14,WeatherDisplay:10.37,2013-06-29 23:45:00,
2013-06-29 19:50:00,71.8,71.5,29.45,SE,135,10.4,10.4,99,0.00,CLR,SCT,0.14,WeatherDisplay:10.37,2013-06-29 23:50:00,
2013-06-29 19:55:00,71.8,71.5,29.45,East,90,8.1,8.1,99,0.00,CLR,SCT,0.14,WeatherDisplay:10.37,2013-06-29 23:55:00,
2013-06-29 20:00:00,71.8,71.5,29.45,NW,315,11.5,11.5,99,0.00,CLR,SCT,0.14,WeatherDisplay:10.37,2013-06-30 00:00:00,
2013-06-29 20:06:00,71.8,71.5,29.45,North,0,10.4,10.4,99,0.00,CLR,SCT,0.14,WeatherDisplay:10.37,2013-06-30 00:06:00,
2013-06-29 20:11:00,72.0,71.7,29.45,NE,45,4.6,4.6,99,0.00,CLR,SCT,0.14,WeatherDisplay:10.37,2013-06-30 00:11:00,
2013-06-29 20:16:00,72.0,71.7,29.45,NE,45,5.8,5.8,99,0.00,CLR,SCT,0.14,WeatherDisplay:10.37,2013-06-30 00:16:00,
2013-06-29 20:21:00,72.0,71.7,29.46,SE,135,5.8,5.8,99,0.00,CLR,SCT,0.14,WeatherDisplay:10.37,2013-06-30 00:21:00,
2013-06-29 20:26:00,72.0,71.7,29.46,East,90,9.2,9.2,99,0.00,CLR,SCT,0.14,WeatherDisplay:10.37,2013-06-30 00:26:00,
2013-06-29 20:31:00,72.0,71.7,29.46,SE,135,8.1,8.1,99,0.00,CLR,SCT,0.14,WeatherDisplay:10.37,2013-06-30 00:31:00,
2013-06-29 20:36:00,72.0,71.7,29.47,East,90,11.5,11.5,99,0.00,CLR,SCT,0.14,WeatherDisplay:10.37,2013-06-30 00:36:00,
2013-06-29 20:41:00,71.8,71.5,29.47,SE,135,5.8,5.8,99,0.00,CLR,SCT,0.14,WeatherDisplay:10.37,2013-06-30 00:41:00,
2013-06-29 20:46:00,71.6,71.3,29.47,SE,135,8.1,8.1,99,0.00,CLR,SCT,0.14,WeatherDisplay:10.37,2013-06-30 00:46:00,
2013-06-29 20:51:00,71.6,71.3,29.47,East,90,5.8,5.8,99,0.00,CLR,SCT,0.14,WeatherDisplay:10.37,2013-06-30 00:51:00,
2013-06-29 20:56:00,71.6,71.3,29.48,East,90,5.8,5.8,99,0.00,CLR,SCT,0.14,WeatherDisplay:10.37,2013-06-30 00:56:00,
2013-06-29 21:01:00,71.4,71.1,29.48,East,90,10.4,10.4,99,0.00,CLR,SCT,0.14,WeatherDisplay:10.37,2013-06-30 01:01:00,
2013-06-29 21:06:00,71.2,70.9,29.48,SE,135,8.1,8.1,99,0.00,CLR,SCT,0.14,WeatherDisplay:10.37,2013-06-30 01:06:00,
2013-06-29 21:11:00,71.2,70.9,29.48,SE,135,8.1,8.1,99,0.00,CLR,SCT,0.14,WeatherDisplay:10.37,2013-06-30 01:11:00,
2013-06-29 21:16:00,71.1,70.8,29.48,SE,135,15.0,15.0,99,0.00,CLR,SCT,0.14,WeatherDisplay:10.37,2013-06-30 01:16:00,
2013-06-29 21:21:00,70.9,70.6,29.49,East,90,10.4,10.4,99,0.00,CLR,SCT,0.14,WeatherDisplay:10.37,2013-06-30 01:21:00,
2013-06-29 21:26:00,70.7,70.4,29.49,East,90,5.8,5.8,99,0.00,CLR,SCT,0.14,WeatherDisplay:10.37,2013-06-30 01:26:00,
2013-06-29 21:31:00,70.7,70.4,29.49,East,90,10.4,10.4,99,0.00,CLR,SCT,0.14,WeatherDisplay:10.37,2013-06-30 01:31:00,
2013-06-29 21:36:00,70.5,70.2,29.49,South,180,8.1,8.1,99,0.00,CLR,SCT,0.14,WeatherDisplay:10.37,2013-06-30 01:36:00,
2013-06-29 21:41:00,70.3,70.0,29.49,East,90,5.8,5.8,99,0.00,CLR,SCT,0.14,WeatherDisplay:10.37,2013-06-30 01:41:00,
2013-06-29 21:46:00,70.3,70.0,29.50,East,90,11.5,11.5,99,0.00,CLR,SCT,0.14,WeatherDisplay:10.37,2013-06-30 01:46:00,
2013-06-29 21:51:00,70.2,69.9,29.50,SE,135,10.4,10.4,99,0.00,CLR,SCT,0.14,WeatherDisplay:10.37,2013-06-30 01:51:00,
2013-06-29 21:56:00,70.3,70.0,29.50,SE,135,6.9,6.9,99,0.00,CLR,SCT,0.14,WeatherDisplay:10.37,2013-06-30 01:56:00,
2013-06-29 22:01:00,70.3,70.0,29.50,East,90,5.8,5.8,99,0.00,CLR,SCT,0.14,WeatherDisplay:10.37,2013-06-30 02:01:00,
2013-06-29 22:06:00,70.3,70.0,29.50,SE,135,5.8,5.8,99,0.00,CLR,SCT,0.14,WeatherDisplay:10.37,2013-06-30 02:06:00,
2013-06-29 22:11:00,70.3,70.0,29.50,SE,135,10.4,10.4,99,0.00,CLR,SCT,0.14,WeatherDisplay:10.37,2013-06-30 02:11:00,
2013-06-29 22:16:00,70.3,70.0,29.50,SW,225,9.2,9.2,99,0.00,CLR,SCT,0.14,WeatherDisplay:10.37,2013-06-30 02:16:00,
2013-06-29 22:21:00,70.3,70.0,29.49,East,90,4.6,4.6,99,0.00,CLR,SCT,0.14,WeatherDisplay:10.37,2013-06-30 02:21:00,
2013-06-29 22:26:00,70.3,70.0,29.50,SE,135,10.4,10.4,99,0.00,CLR,SCT,0.14,WeatherDisplay:10.37,2013-06-30 02:26:00,
2013-06-29 22:31:00,70.3,70.0,29.50,East,90,10.4,10.4,99,0.00,CLR,SCT,0.14,WeatherDisplay:10.37,2013-06-30 02:31:00,
2013-06-29 22:36:00,70.3,70.0,29.50,NE,45,5.8,5.8,99,0.00,CLR,SCT,0.14,WeatherDisplay:10.37,2013-06-30 02:36:00,
2013-06-29 22:41:00,70.2,69.9,29.50,East,90,5.8,5.8,99,0.00,CLR,SCT,0.14,WeatherDisplay:10.37,2013-06-30 02:41:00,
2013-06-29 22:46:00,70.3,70.0,29.51,NE,45,11.5,11.5,99,0.00,CLR,SCT,0.14,WeatherDisplay:10.37,2013-06-30 02:46:00,
2013-06-29 22:51:00,70.3,70.0,29.50,East,90,11.5,11.5,99,0.00,CLR,SCT,0.14,WeatherDisplay:10.37,2013-06-30 02:51:00,
2013-06-29 22:56:00,70.3,70.0,29.51,South,180,8.1,8.1,99,0.00,CLR,SCT,0.14,WeatherDisplay:10.37,2013-06-30 02:56:00,
2013-06-29 23:01:00,70.3,70.0,29.51,SE,135,5.8,5.8,99,0.00,CLR,SCT,0.14,WeatherDisplay:10.37,2013-06-30 03:01:00,
2013-06-29 23:06:00,70.2,69.9,29.51,NE,45,8.1,8.1,99,0.00,CLR,SCT,0.14,WeatherDisplay:10.37,2013-06-30 03:06:00,
2013-06-29 23:11:00,70.3,70.0,29.50,NE,45,5.8,5.8,99,0.00,CLR,SCT,0.14,WeatherDisplay:10.37,2013-06-30 03:11:00,
2013-06-29 23:16:00,70.3,70.0,29.51,East,90,5.8,5.8,99,0.00,CLR,SCT,0.14,WeatherDisplay:10.37,2013-06-30 03:16:00,
2013-06-29 23:21:00,70.5,70.2,29.51,East,90,3.5,3.8,99,0.00,CLR,SCT,0.14,WeatherDisplay:10.37,2013-06-30 03:21:00,
2013-06-29 23:26:00,70.5,70.2,29.51,East,90,5.8,5.8,99,0.00,CLR,SCT,0.14,WeatherDisplay:10.37,2013-06-30 03:26:00,
2013-06-29 23:31:00,70.7,70.4,29.51,SE,135,6.9,6.9,99,0.00,CLR,SCT,0.14,WeatherDisplay:10.37,2013-06-30 03:31:00,
2013-06-29 23:36:00,70.7,70.4,29.51,North,0,4.6,4.6,99,0.00,CLR,SCT,0.14,WeatherDisplay:10.37,2013-06-30 03:36:00,
2013-06-29 23:41:00,70.7,70.4,29.51,SE,135,8.1,8.1,99,0.00,CLR,SCT,0.14,WeatherDisplay:10.37,2013-06-30 03:41:00,
2013-06-29 23:46:00,70.9,70.6,29.51,SE,135,8.1,8.1,99,0.00,CLR,SCT,0.14,WeatherDisplay:10.37,2013-06-30 03:46:00,
2013-06-29 23:51:00,70.9,70.6,29.51,East,90,8.1,8.1,99,0.00,CLR,SCT,0.14,WeatherDisplay:10.37,2013-06-30 03:51:00,
2013-06-29 23:56:00,70.9,70.6,29.51,SE,135,5.8,5.8,99,0.00,CLR,SCT,0.14,WeatherDisplay:10.37,2013-06-30 03:56:00,